Time;durP1;ratioP1;P1;durP2;ratioP2;P2;SDS_P1;SDS_P2;PMS_P1;PMS_P2;Temp;Humidity;BMP_temperature;BMP_pressure;BME280_temperature;BME280_humidity;BME280_pressure;Samples;Min_cycle;Max_cycle;Signal;HPM_P1;HPM_P2
2022/03/20 00:01:12;;;;;;;10.82;5.45;;;4.70;99.90;;;;;;5089438;28;20040;-80
2022/03/20 00:03:38;;;;;;;11.63;6.38;;;4.70;99.90;;;;;;5089925;28;20048;-83
2022/03/20 00:06:04;;;;;;;13.50;6.68;;;4.60;99.90;;;;;;5091636;28;20123;-80
2022/03/20 00:08:30;;;;;;;12.25;6.13;;;4.60;99.90;;;;;;5089532;28;20044;-81
2022/03/20 00:10:59;;;;;;;10.60;6.15;;;4.60;99.90;;;;;;5090805;28;20044;-80
2022/03/20 00:13:26;;;;;;;11.80;5.90;;;4.60;99.90;;;;;;5086958;28;20386;-81
2022/03/20 00:15:54;;;;;;;12.05;6.35;;;4.50;99.90;;;;;;5090397;28;20047;-80
2022/03/20 00:18:23;;;;;;;11.23;5.90;;;4.50;99.90;;;;;;5091173;28;20051;-80
2022/03/20 00:20:51;;;;;;;15.30;6.13;;;4.50;99.90;;;;;;5089483;28;20084;-81
2022/03/20 00:23:17;;;;;;;10.65;6.28;;;4.50;99.90;;;;;;5078773;28;20525;-82
2022/03/20 00:25:45;;;;;;;13.15;6.50;;;4.50;99.90;;;;;;5087322;28;20123;-82
2022/03/20 00:28:14;;;;;;;11.30;5.82;;;4.50;99.90;;;;;;5091788;28;20047;-80
2022/03/20 00:30:40;;;;;;;12.23;6.20;;;4.40;99.90;;;;;;5083089;28;20143;-80
2022/03/20 00:33:06;;;;;;;12.50;6.55;;;4.40;99.90;;;;;;5088178;28;20517;-80
2022/03/20 00:35:32;;;;;;;12.88;6.03;;;4.40;99.90;;;;;;5095603;28;20052;-82
2022/03/20 00:37:58;;;;;;;13.90;5.90;;;4.40;99.90;;;;;;5091341;28;20052;-80
2022/03/20 00:40:24;;;;;;;12.43;6.38;;;4.30;99.90;;;;;;5088341;28;20133;-81
2022/03/20 00:42:51;;;;;;;10.75;6.10;;;4.60;99.90;;;;;;5094403;28;20503;-81
2022/03/20 00:45:17;;;;;;;10.88;6.32;;;4.30;99.90;;;;;;5096832;28;20124;-81
2022/03/20 00:47:42;;;;;;;11.85;6.05;;;4.30;99.90;;;;;;5092228;28;20119;-82
2022/03/20 00:50:08;;;;;;;11.38;6.00;;;4.20;99.90;;;;;;5098923;28;20031;-81
2022/03/20 00:52:34;;;;;;;11.30;6.05;;;4.20;99.90;;;;;;5100952;28;20463;-83
2022/03/20 00:55:00;;;;;;;14.63;5.70;;;4.20;99.90;;;;;;5092855;28;20483;-80
2022/03/20 00:57:26;;;;;;;11.20;6.50;;;4.20;99.90;;;;;;5099275;28;20051;-83
2022/03/20 00:59:52;;;;;;;12.13;5.75;;;4.20;99.90;;;;;;5098493;28;20059;-81
2022/03/20 01:02:17;;;;;;;10.80;5.47;;;4.20;99.90;;;;;;5090215;28;20031;-85
2022/03/20 01:04:43;;;;;;;13.50;5.65;;;4.20;99.90;;;;;;5090575;28;20021;-80
2022/03/20 01:07:09;;;;;;;13.98;6.35;;;4.20;99.90;;;;;;5096720;28;20043;-81
2022/03/20 01:09:35;;;;;;;12.65;6.57;;;4.20;99.90;;;;;;5099938;28;20040;-83
2022/03/20 01:12:02;;;;;;;13.43;6.55;;;4.20;99.90;;;;;;5094405;28;20043;-85
2022/03/20 01:14:28;;;;;;;13.63;6.93;;;4.20;99.90;;;;;;5101578;28;20059;-81
2022/03/20 01:16:54;;;;;;;14.63;6.53;;;4.70;99.90;;;;;;5100431;28;20048;-81
2022/03/20 01:19:21;;;;;;;13.95;6.25;;;4.20;99.90;;;;;;5088137;28;20463;-82
2022/03/20 01:21:47;;;;;;;18.40;6.90;;;4.10;99.90;;;;;;5101533;28;20067;-82
2022/03/20 01:24:12;;;;;;;11.23;6.18;;;4.10;99.90;;;;;;5094535;28;20132;-80
2022/03/20 01:26:38;;;;;;;13.13;6.18;;;4.00;99.90;;;;;;5095502;28;20083;-84
2022/03/20 01:29:05;;;;;;;13.02;6.90;;;4.00;99.90;;;;;;5098947;28;20016;-84
2022/03/20 01:31:35;;;;;;;14.10;6.65;;;4.00;99.90;;;;;;5089947;28;20032;-81
2022/03/20 01:34:01;;;;;;;13.70;6.05;;;4.00;99.90;;;;;;5095028;28;20383;-83
2022/03/20 01:36:27;;;;;;;15.35;7.07;;;4.00;99.90;;;;;;5094308;28;20048;-83
2022/03/20 01:38:54;;;;;;;13.50;6.72;;;4.00;99.90;;;;;;5088678;28;20118;-82
2022/03/20 01:41:21;;;;;;;12.35;6.38;;;3.90;99.90;;;;;;5092993;28;20133;-80
2022/03/20 01:43:54;;;;;;;13.65;7.65;;;3.90;99.90;;;;;;5095342;28;20039;-81
2022/03/20 01:46:20;;;;;;;14.52;7.65;;;3.80;99.90;;;;;;5092229;28;20047;-82
2022/03/20 01:48:46;;;;;;;22.27;7.65;;;3.80;99.90;;;;;;5095404;28;20509;-81
2022/03/20 01:51:13;;;;;;;15.25;6.80;;;3.80;99.90;;;;;;5097315;28;20512;-83
2022/03/20 01:53:39;;;;;;;15.60;7.50;;;3.80;99.90;;;;;;5094198;28;20067;-84
2022/03/20 01:56:05;;;;;;;16.23;7.43;;;3.80;99.90;;;;;;5081893;28;20461;-82
2022/03/20 01:58:34;;;;;;;14.57;6.90;;;3.70;99.90;;;;;;5090729;28;20538;-82
2022/03/20 02:01:00;;;;;;;;;;;3.70;99.90;;;;;;5104275;28;20036;-81
2022/03/20 02:03:26;;;;;;;15.85;7.50;;;3.70;99.90;;;;;;5123552;27;19931;-83
2022/03/20 02:05:52;;;;;;;15.75;7.13;;;3.70;99.90;;;;;;5095678;28;20394;-85
2022/03/20 02:08:25;;;;;;;21.10;8.80;;;3.60;99.90;;;;;;5096234;28;20592;-82
2022/03/20 02:10:54;;;;;;;18.15;7.53;;;3.60;99.90;;;;;;5094533;28;20040;-81
2022/03/20 02:13:22;;;;;;;15.75;7.88;;;3.60;99.90;;;;;;5085232;28;20040;-81
2022/03/20 02:15:48;;;;;;;14.80;7.47;;;3.60;99.90;;;;;;5100741;28;20052;-81
2022/03/20 02:18:14;;;;;;;16.10;8.25;;;3.90;99.90;;;;;;5105800;28;20093;-83
2022/03/20 02:20:40;;;;;;;17.40;7.63;;;3.50;99.90;;;;;;5100037;28;20124;-82
2022/03/20 02:23:07;;;;;;;19.50;8.52;;;3.50;99.90;;;;;;5104555;28;20051;-83
2022/03/20 02:25:32;;;;;;;15.38;8.25;;;3.40;99.90;;;;;;5101979;28;20036;-82
2022/03/20 02:27:58;;;;;;;23.58;8.50;;;3.40;99.90;;;;;;5098764;28;20478;-81
2022/03/20 02:30:27;;;;;;;17.08;8.57;;;3.40;99.90;;;;;;5098697;28;20043;-80
2022/03/20 02:32:53;;;;;;;19.63;8.60;;;3.40;99.90;;;;;;5098131;28;20034;-83
2022/03/20 02:35:20;;;;;;;19.63;8.88;;;3.40;99.90;;;;;;5096981;28;20132;-82
2022/03/20 02:37:48;;;;;;;19.50;8.57;;;3.30;99.90;;;;;;5096516;28;20044;-81
2022/03/20 02:40:15;;;;;;;17.58;9.00;;;3.30;99.90;;;;;;5084817;28;20036;-86
2022/03/20 02:42:42;;;;;;;22.13;9.40;;;4.40;99.90;;;;;;5097521;28;20040;-82
2022/03/20 02:45:15;;;;;;;14.75;8.25;;;3.30;99.90;;;;;;5105878;28;20286;-81
2022/03/20 02:47:43;;;;;;;17.35;9.13;;;3.20;99.90;;;;;;5096836;28;20028;-83
2022/03/20 02:50:19;;;;;;;16.02;9.18;;;3.30;99.90;;;;;;5097952;28;20143;-84
2022/03/20 02:52:54;;;;;;;17.83;9.25;;;3.20;99.90;;;;;;5098915;28;20052;-82
2022/03/20 02:55:25;;;;;;;14.88;8.95;;;3.20;99.90;;;;;;5096779;28;20128;-83
2022/03/20 02:57:52;;;;;;;17.20;9.43;;;3.20;99.90;;;;;;5081067;28;20453;-84
2022/03/20 03:00:21;;;;;;;17.88;9.68;;;3.20;99.90;;;;;;5092907;28;20032;-81
2022/03/20 03:02:48;;;;;;;19.58;9.73;;;3.30;99.90;;;;;;5095356;28;20052;-81
2022/03/20 03:05:18;;;;;;;20.65;9.98;;;3.20;99.90;;;;;;5100071;28;20076;-83
2022/03/20 03:13:16;;;;;;;19.08;10.27;;;3.10;99.90;;;;;;5096239;28;20047;-82
2022/03/20 03:15:42;;;;;;;19.25;11.00;;;3.10;99.90;;;;;;5097200;28;20063;-82
2022/03/20 03:18:08;;;;;;;21.08;11.13;;;3.10;99.90;;;;;;5100045;28;20490;-78
2022/03/20 03:20:34;;;;;;;20.40;10.85;;;3.10;99.90;;;;;;5100406;28;20040;-82
2022/03/20 03:23:00;;;;;;;19.38;10.20;;;3.10;99.90;;;;;;5098598;28;20040;-86
2022/03/20 03:25:26;;;;;;;16.40;10.45;;;3.20;99.90;;;;;;5086685;28;20530;-79
2022/03/20 03:27:53;;;;;;;22.92;11.20;;;3.10;99.90;;;;;;5097661;28;20036;-81
2022/03/20 03:30:18;;;;;;;23.83;11.32;;;3.20;99.90;;;;;;5091471;28;20035;-80
2022/03/20 03:32:44;;;;;;;22.35;12.00;;;3.10;99.90;;;;;;5091952;28;20105;-83
2022/03/20 03:37:56;;;;;;;18.88;10.82;;;3.10;99.90;;;;;;5093854;28;20571;-81
2022/03/20 03:40:22;;;;;;;27.13;11.95;;;3.10;99.90;;;;;;5086477;28;20032;-83
2022/03/20 03:42:48;;;;;;;22.85;11.70;;;3.10;99.90;;;;;;5100598;28;20546;-81
2022/03/20 03:45:14;;;;;;;24.58;11.85;;;3.10;99.90;;;;;;5093459;28;20042;-81
2022/03/20 03:47:40;;;;;;;19.80;11.15;;;3.10;99.90;;;;;;5094095;28;20085;-81
2022/03/20 03:50:07;;;;;;;19.80;11.68;;;3.00;99.90;;;;;;5091020;28;20040;-84
2022/03/20 03:52:33;;;;;;;18.80;10.73;;;3.00;99.90;;;;;;5094655;28;20036;-83
2022/03/20 03:54:59;;;;;;;20.38;12.05;;;3.00;99.90;;;;;;5075222;28;20032;-81
2022/03/20 03:57:24;;;;;;;27.70;11.73;;;3.00;99.90;;;;;;5104278;28;20036;-81
2022/03/20 03:59:50;;;;;;;29.48;12.52;;;2.90;99.90;;;;;;5098126;28;20058;-83
2022/03/20 04:02:16;;;;;;;20.33;11.75;;;2.90;99.90;;;;;;5103035;28;20048;-83
2022/03/20 04:04:42;;;;;;;22.20;11.35;;;2.90;99.90;;;;;;5101712;28;20062;-82
2022/03/20 04:07:09;;;;;;;21.50;12.73;;;2.90;99.90;;;;;;5097276;28;20112;-82
2022/03/20 04:09:35;;;;;;;22.38;12.73;;;2.90;99.90;;;;;;5093760;28;20467;-86
2022/03/20 04:12:03;;;;;;;22.20;11.30;;;2.90;99.90;;;;;;5099412;28;20043;-84
2022/03/20 04:14:29;;;;;;;21.93;12.77;;;2.90;99.90;;;;;;5104111;28;20044;-85
2022/03/20 04:16:55;;;;;;;21.77;11.75;;;2.90;99.90;;;;;;5099776;28;20364;-80
2022/03/20 04:19:21;;;;;;;20.05;11.13;;;2.80;99.90;;;;;;5101078;28;20044;-81
2022/03/20 04:21:50;;;;;;;22.30;12.48;;;2.80;99.90;;;;;;5098466;28;20073;-82
2022/03/20 04:24:16;;;;;;;23.25;13.13;;;2.80;99.90;;;;;;5074906;28;20102;-85
2022/03/20 04:26:42;;;;;;;21.30;12.48;;;2.80;99.90;;;;;;5101066;28;20040;-82
2022/03/20 04:29:07;;;;;;;21.77;11.55;;;2.70;99.90;;;;;;5080649;28;20115;-80
2022/03/20 04:31:33;;;;;;;22.45;12.57;;;2.70;99.90;;;;;;5096509;28;20574;-81
2022/03/20 04:33:59;;;;;;;21.70;11.45;;;2.70;99.90;;;;;;5095069;28;20514;-82
2022/03/20 04:36:27;;;;;;;22.98;12.55;;;2.70;99.90;;;;;;5098684;28;20118;-81
2022/03/20 04:38:55;;;;;;;21.70;12.93;;;2.70;99.90;;;;;;5098397;28;20177;-81
2022/03/20 04:41:21;;;;;;;21.98;12.48;;;2.70;99.90;;;;;;5096894;28;20040;-83
2022/03/20 04:43:48;;;;;;;19.40;12.32;;;2.70;99.90;;;;;;5091889;28;20043;-82
2022/03/20 04:46:14;;;;;;;23.02;13.40;;;2.60;99.90;;;;;;5099381;28;20422;-84
2022/03/20 04:59:38;;;;;;;17.98;11.32;;;2.50;99.90;;;;;;5095591;28;20056;-81
2022/03/20 05:02:04;;;;;;;22.17;12.57;;;2.50;99.90;;;;;;5095155;28;20044;-82
2022/03/20 05:04:29;;;;;;;23.90;13.50;;;2.40;99.90;;;;;;5100382;28;20401;-83
2022/03/20 05:06:55;;;;;;;26.48;13.63;;;2.40;99.90;;;;;;5094689;28;20487;-85
2022/03/20 05:14:49;;;;;;;22.67;14.13;;;2.30;99.90;;;;;;5103877;28;20095;-83
2022/03/20 05:17:15;;;;;;;23.73;14.15;;;2.40;99.90;;;;;;5101167;28;20044;-83
2022/03/20 05:19:41;;;;;;;27.70;14.15;;;2.30;99.90;;;;;;5100009;28;20039;-83
2022/03/20 05:22:10;;;;;;;23.23;13.57;;;2.30;99.90;;;;;;5092839;28;20043;-82
2022/03/20 05:24:36;;;;;;;25.40;13.93;;;2.30;99.90;;;;;;5096276;28;20036;-79
2022/03/20 05:27:03;;;;;;;23.77;13.98;;;2.30;99.90;;;;;;5096279;28;20517;-81
2022/03/20 05:29:29;;;;;;;26.08;14.60;;;2.20;99.90;;;;;;5093855;28;20108;-81
2022/03/20 05:31:55;;;;;;;21.05;14.27;;;2.20;99.90;;;;;;5094691;28;20036;-80
2022/03/20 05:34:22;;;;;;;24.10;14.70;;;2.20;99.90;;;;;;5092122;28;20490;-83
2022/03/20 05:36:48;;;;;;;24.50;14.10;;;2.20;99.90;;;;;;5095379;28;20036;-81
2022/03/20 05:39:14;;;;;;;21.73;13.63;;;2.20;99.90;;;;;;5096192;28;20071;-80
2022/03/20 05:41:49;;;;;;;30.98;14.15;;;2.20;99.90;;;;;;5094099;28;20132;-84
2022/03/20 05:44:16;;;;;;;24.75;15.48;;;2.20;99.90;;;;;;5101153;28;20047;-85
2022/03/20 05:46:44;;;;;;;28.15;14.60;;;2.20;99.90;;;;;;5130163;27;20047;-84
2022/03/20 05:49:11;;;;;;;25.50;14.82;;;2.20;99.90;;;;;;5095094;28;20380;-82
2022/03/20 05:51:37;;;;;;;26.13;14.95;;;2.20;99.90;;;;;;5096078;28;20434;-82
2022/03/20 05:54:04;;;;;;;26.33;14.85;;;2.20;99.90;;;;;;5086698;28;20457;-82
2022/03/20 05:59:14;;;;;;;23.35;14.20;;;2.20;99.90;;;;;;5095244;28;20131;-82
2022/03/20 06:01:39;;;;;;;30.80;16.40;;;2.20;99.90;;;;;;5092609;28;20127;-82
2022/03/20 06:04:06;;;;;;;26.63;15.13;;;2.20;99.90;;;;;;5093603;28;20304;-80
2022/03/20 06:06:36;;;;;;;26.52;14.65;;;2.20;99.90;;;;;;5093091;28;20123;-83
2022/03/20 06:09:02;;;;;;;26.13;14.82;;;2.20;99.90;;;;;;5090754;28;20097;-82
2022/03/20 06:11:28;;;;;;;26.13;15.45;;;2.20;99.90;;;;;;5095604;28;20067;-79
2022/03/20 06:13:53;;;;;;;26.55;14.98;;;2.30;99.90;;;;;;5098407;28;20036;-84
2022/03/20 06:16:21;;;;;;;27.50;16.23;;;2.30;99.90;;;;;;5099028;28;20052;-88
2022/03/20 06:18:47;;;;;;;28.60;16.33;;;2.30;99.90;;;;;;5087240;28;20044;-82
2022/03/20 06:21:13;;;;;;;25.52;15.98;;;2.30;99.90;;;;;;5096857;28;20079;-81
2022/03/20 06:23:39;;;;;;;27.83;15.77;;;2.30;99.90;;;;;;5099168;28;20109;-82
2022/03/20 06:26:06;;;;;;;34.00;16.98;;;2.30;99.90;;;;;;5096289;28;20502;-84
2022/03/20 06:28:33;;;;;;;23.20;15.43;;;2.40;99.90;;;;;;5094951;28;20372;-86
2022/03/20 06:30:58;;;;;;;27.02;14.77;;;2.40;99.90;;;;;;5096143;28;20482;-81
2022/03/20 06:33:27;;;;;;;23.27;15.00;;;2.40;99.90;;;;;;5092484;28;21433;-83
2022/03/20 06:35:53;;;;;;;;;;;2.40;99.90;;;;;;5095713;28;20044;-83
2022/03/20 06:38:20;;;;;;;23.63;14.38;;;2.50;99.90;;;;;;5096740;28;20023;-82
2022/03/20 06:40:46;;;;;;;27.77;15.15;;;2.60;99.90;;;;;;5090082;28;20046;-85
2022/03/20 06:43:13;;;;;;;27.08;14.90;;;2.60;99.90;;;;;;5099309;28;20044;-83
2022/03/20 06:45:39;;;;;;;25.85;15.05;;;2.60;99.90;;;;;;5089783;28;20494;-83
2022/03/20 06:48:06;;;;;;;27.25;15.05;;;2.70;99.90;;;;;;5091351;28;20071;-80
2022/03/20 06:50:31;;;;;;;26.95;15.45;;;2.70;99.90;;;;;;5084309;28;20079;-81
2022/03/20 06:53:02;;;;;;;26.23;15.68;;;2.80;99.90;;;;;;5094937;28;20071;-85
2022/03/20 06:55:30;;;;;;;27.70;15.85;;;3.00;99.90;;;;;;5085933;28;20185;-84
2022/03/20 06:57:56;;;;;;;26.55;15.52;;;3.10;99.90;;;;;;5088201;28;20482;-82
2022/03/20 07:00:22;;;;;;;28.17;15.82;;;3.30;99.90;;;;;;5093683;28;20028;-82
2022/03/20 07:02:48;;;;;;;23.95;14.63;;;3.50;99.90;;;;;;5094412;28;20036;-85
2022/03/20 07:05:13;;;;;;;28.10;15.68;;;3.60;99.90;;;;;;5093642;28;20043;-82
2022/03/20 07:07:40;;;;;;;26.38;15.10;;;3.70;99.90;;;;;;5095646;28;20044;-83
2022/03/20 07:10:07;;;;;;;27.40;14.25;;;3.60;99.90;;;;;;5099040;28;20040;-81
2022/03/20 07:12:33;;;;;;;25.60;14.03;;;3.50;99.90;;;;;;5096616;28;20047;-82
2022/03/20 07:14:59;;;;;;;26.60;14.85;;;3.60;99.90;;;;;;5093583;28;20339;-81
2022/03/20 07:17:25;;;;;;;22.75;14.13;;;3.50;99.90;;;;;;5088705;28;20044;-81
2022/03/20 07:19:51;;;;;;;27.08;14.80;;;3.50;99.90;;;;;;5088953;28;20051;-81
2022/03/20 07:22:18;;;;;;;26.02;15.82;;;3.60;99.90;;;;;;5092980;28;20032;-79
2022/03/20 07:24:44;;;;;;;24.58;14.48;;;3.50;99.90;;;;;;5098933;28;20048;-81
2022/03/20 07:29:56;;;;;;;27.20;14.48;;;3.60;99.90;;;;;;5094165;28;20101;-83
2022/03/20 07:32:22;;;;;;;29.98;15.38;;;3.60;99.90;;;;;;5094277;28;20043;-80
2022/03/20 07:34:48;;;;;;;28.25;14.75;;;3.60;99.90;;;;;;5092797;28;20399;-81
2022/03/20 07:37:16;;;;;;;26.75;15.10;;;3.70;99.90;;;;;;5093721;28;20032;-82
2022/03/20 07:39:49;;;;;;;23.98;14.82;;;3.70;99.90;;;;;;5093423;28;20125;-82
2022/03/20 07:42:16;;;;;;;23.80;14.32;;;3.80;99.90;;;;;;5086819;28;20076;-82
2022/03/20 07:44:42;;;;;;;29.42;15.02;;;3.80;99.90;;;;;;5075713;28;20129;-81
2022/03/20 07:47:08;;;;;;;24.10;15.20;;;3.80;99.90;;;;;;5094195;28;20036;-79
2022/03/20 07:49:37;;;;;;;27.50;13.57;;;3.90;99.90;;;;;;5094347;28;20044;-81
2022/03/20 07:52:05;;;;;;;28.40;15.40;;;4.00;99.90;;;;;;5086406;28;20036;-80
2022/03/20 07:54:31;;;;;;;26.65;14.68;;;4.10;99.90;;;;;;5087130;28;20048;-79
2022/03/20 07:56:57;;;;;;;24.52;14.60;;;4.20;99.90;;;;;;5091818;28;20036;-79
2022/03/20 07:59:23;;;;;;;20.95;12.75;;;4.30;99.90;;;;;;5092353;28;20070;-80
2022/03/20 08:01:49;;;;;;;22.42;14.02;;;4.30;99.90;;;;;;5094126;28;20098;-81
2022/03/20 08:04:16;;;;;;;22.60;13.32;;;4.40;99.90;;;;;;5098793;28;20097;-81
2022/03/20 08:06:42;;;;;;;25.60;14.82;;;4.50;99.90;;;;;;5101268;28;20036;-82
2022/03/20 08:09:08;;;;;;;25.27;15.73;;;4.50;99.90;;;;;;5096854;28;20063;-80
2022/03/20 08:11:33;;;;;;;26.60;15.35;;;4.60;99.90;;;;;;5085346;28;20160;-81
2022/03/20 08:14:00;;;;;;;22.00;13.40;;;4.60;99.90;;;;;;5097115;28;20463;-79
2022/03/20 08:16:26;;;;;;;26.77;15.70;;;5.10;99.90;;;;;;5107981;28;20052;-81
2022/03/20 08:18:54;;;;;;;25.52;14.27;;;4.70;99.90;;;;;;5108151;28;20390;-82
2022/03/20 08:21:20;;;;;;;26.52;14.52;;;4.80;99.90;;;;;;5104677;28;20040;-79
2022/03/20 08:23:46;;;;;;;23.95;13.65;;;4.90;99.90;;;;;;5097353;28;20044;-81
2022/03/20 08:26:12;;;;;;;24.20;14.25;;;6.00;99.90;;;;;;5095089;28;20039;-79
2022/03/20 08:28:42;;;;;;;23.55;15.45;;;5.00;99.90;;;;;;5104077;28;20047;-80
2022/03/20 08:31:09;;;;;;;24.15;15.30;;;5.10;99.90;;;;;;5099993;28;20051;-79
2022/03/20 08:33:35;;;;;;;28.30;15.60;;;5.10;99.90;;;;;;5094572;28;20041;-80
2022/03/20 08:36:01;;;;;;;32.85;15.32;;;5.30;99.90;;;;;;5089523;28;20040;-80
2022/03/20 08:38:27;;;;;;;23.80;15.05;;;5.40;99.90;;;;;;5093294;28;20044;-81
2022/03/20 08:40:54;;;;;;;25.35;15.05;;;5.60;99.90;;;;;;5092939;28;20071;-80
2022/03/20 08:43:21;;;;;;;23.83;15.23;;;5.60;99.90;;;;;;5091428;28;20036;-80
2022/03/20 08:45:47;;;;;;;25.58;15.43;;;5.60;99.90;;;;;;5090743;28;20056;-80
2022/03/20 08:48:12;;;;;;;25.50;14.27;;;5.70;99.90;;;;;;5090245;28;20048;-78
2022/03/20 08:50:38;;;;;;;26.77;14.88;;;6.70;99.90;;;;;;5090417;28;20056;-80
2022/03/20 08:53:04;;;;;;;26.35;14.95;;;5.90;99.90;;;;;;5094054;28;20052;-79
2022/03/20 08:55:33;;;;;;;26.42;14.60;;;5.90;99.90;;;;;;5096297;28;20043;-78
2022/03/20 08:57:59;;;;;;;30.42;16.33;;;6.10;99.90;;;;;;5092684;28;20040;-79
2022/03/20 09:00:29;;;;;;;26.35;15.57;;;6.10;99.80;;;;;;5091518;28;20043;-80
2022/03/20 09:02:54;;;;;;;26.90;15.32;;;6.10;99.50;;;;;;5096842;28;20513;-80
2022/03/20 09:05:26;;;;;;;30.15;16.92;;;6.30;99.30;;;;;;5095988;28;20135;-80
2022/03/20 09:07:53;;;;;;;26.40;16.05;;;6.20;98.60;;;;;;5102629;28;20494;-79
2022/03/20 09:10:21;;;;;;;30.27;15.48;;;6.40;98.60;;;;;;5104081;28;20032;-80
2022/03/20 09:12:47;;;;;;;27.25;16.65;;;6.40;98.30;;;;;;5088105;28;20040;-81
2022/03/20 09:15:15;;;;;;;25.50;16.02;;;6.60;98.10;;;;;;5094271;28;20051;-80
2022/03/20 09:20:36;;;;;;;26.13;15.82;;;6.70;97.90;;;;;;5094228;28;20402;-79
2022/03/20 09:23:03;;;;;;;30.02;15.98;;;6.80;97.40;;;;;;5079160;28;20503;-82
2022/03/20 09:25:32;;;;;;;29.38;17.50;;;7.30;97.30;;;;;;5086278;28;20075;-80
2022/03/20 09:27:58;;;;;;;27.23;17.17;;;6.90;96.50;;;;;;5109924;28;20044;-82
2022/03/20 09:30:23;;;;;;;25.92;16.80;;;6.90;96.20;;;;;;5103699;28;20115;-83
2022/03/20 09:32:49;;;;;;;27.23;16.02;;;6.80;96.00;;;;;;5097618;28;20094;-83
2022/03/20 09:35:18;;;;;;;27.67;16.13;;;6.80;95.90;;;;;;5076458;28;20048;-82
2022/03/20 09:37:44;;;;;;;35.70;17.42;;;7.00;96.20;;;;;;5082405;28;20040;-81
2022/03/20 09:40:10;;;;;;;34.83;18.52;;;7.10;96.40;;;;;;5094999;28;20039;-81
2022/03/20 09:42:37;;;;;;;27.13;16.08;;;7.30;95.80;;;;;;5095027;28;20032;-80
2022/03/20 09:45:05;;;;;;;28.42;17.70;;;8.10;95.50;;;;;;5094220;28;20051;-82
2022/03/20 09:47:35;;;;;;;27.65;17.65;;;7.60;94.90;;;;;;5094177;28;20044;-81
2022/03/20 09:50:01;;;;;;;28.15;16.00;;;7.70;94.40;;;;;;5094662;28;20040;-80
2022/03/20 09:52:27;;;;;;;26.10;16.83;;;7.90;94.70;;;;;;5093344;28;20131;-81
2022/03/20 09:54:52;;;;;;;29.60;17.23;;;8.10;93.90;;;;;;5084181;28;20063;-81
2022/03/20 09:57:18;;;;;;;28.83;18.20;;;8.20;93.90;;;;;;5088434;28;20051;-82
2022/03/20 09:59:43;;;;;;;30.10;17.77;;;8.80;92.20;;;;;;5100010;28;20573;-82
2022/03/20 10:02:11;;;;;;;30.30;16.73;;;8.50;91.60;;;;;;5095458;28;20036;-83
2022/03/20 10:04:57;;;;;;;25.85;16.92;;;8.70;92.30;;;;;;5089394;28;20036;-81
2022/03/20 10:07:30;;;;;;;31.75;17.42;;;9.00;90.80;;;;;;5093497;28;20130;-82
2022/03/20 10:10:15;;;;;;;25.95;17.13;;;8.90;88.90;;;;;;5088319;28;20048;-82
2022/03/20 10:12:53;;;;;;;35.45;18.63;;;9.00;88.20;;;;;;5094699;28;20074;-81
2022/03/20 10:15:33;;;;;;;25.00;16.27;;;9.10;86.60;;;;;;5092055;28;20147;-80
2022/03/20 10:18:09;;;;;;;27.90;18.25;;;9.30;85.40;;;;;;5095789;28;20047;-81
2022/03/20 10:20:59;;;;;;;29.25;18.45;;;9.30;82.40;;;;;;5089592;28;20044;-82
2022/03/20 10:23:41;;;;;;;31.05;18.13;;;9.30;82.00;;;;;;5084168;28;20059;-79
2022/03/20 10:26:14;;;;;;;29.90;18.80;;;9.50;85.10;;;;;;5084312;28;20057;-84
2022/03/20 10:28:44;;;;;;;29.70;17.80;;;9.70;82.20;;;;;;5088018;28;20052;-81
2022/03/20 10:31:15;;;;;;;36.80;19.23;;;9.80;79.80;;;;;;5087791;28;20491;-82
2022/03/20 10:33:41;;;;;;;27.48;17.80;;;10.30;80.80;;;;;;5090694;28;20048;-80
2022/03/20 10:36:14;;;;;;;29.45;18.35;;;10.10;78.60;;;;;;5092131;28;20162;-80
2022/03/20 10:38:45;;;;;;;27.40;17.27;;;10.00;77.50;;;;;;5089769;28;20078;-82
2022/03/20 10:41:21;;;;;;;34.00;19.40;;;10.10;77.20;;;;;;5090993;28;20036;-79
2022/03/20 10:43:49;;;;;;;29.83;18.67;;;10.40;75.50;;;;;;5093627;28;20169;-81
2022/03/20 10:46:26;;;;;;;33.00;18.42;;;10.40;73.90;;;;;;5096254;28;20086;-82
2022/03/20 10:48:54;;;;;;;30.73;18.23;;;10.40;73.90;;;;;;5099565;28;20090;-80
2022/03/20 10:51:41;;;;;;;31.00;19.23;;;10.50;73.90;;;;;;5097840;28;20504;-81
2022/03/20 10:54:10;;;;;;;34.80;18.60;;;10.40;72.70;;;;;;5095783;28;20121;-81
2022/03/20 10:56:38;;;;;;;26.88;18.88;;;10.70;74.00;;;;;;5089827;28;20177;-81
2022/03/20 10:59:15;;;;;;;30.02;18.83;;;10.70;71.10;;;;;;5074811;28;20076;-81
2022/03/20 11:01:44;;;;;;;30.17;18.90;;;11.00;71.20;;;;;;5089477;28;20032;-81
2022/03/20 11:04:11;;;;;;;;;;;10.90;71.10;;;;;;5095183;28;20044;-83
2022/03/20 11:06:37;;;;;;;28.90;19.45;;;11.50;70.20;;;;;;5093927;28;19924;-82
2022/03/20 11:09:04;;;;;;;32.03;18.50;;;11.20;69.50;;;;;;5074113;28;20044;-83
2022/03/20 11:11:34;;;;;;;36.15;18.70;;;11.50;70.00;;;;;;5079197;28;20075;-80
2022/03/20 11:14:02;;;;;;;29.30;19.73;;;11.30;68.60;;;;;;5088989;28;20101;-81
2022/03/20 11:16:33;;;;;;;29.63;18.58;;;11.40;68.10;;;;;;5096069;28;20567;-79
2022/03/20 11:19:01;;;;;;;31.08;19.35;;;11.70;68.90;;;;;;5092302;28;20487;-82
2022/03/20 11:21:30;;;;;;;27.60;18.48;;;11.50;67.60;;;;;;5093088;28;20502;-82
2022/03/20 11:23:58;;;;;;;28.90;18.73;;;11.50;66.90;;;;;;5094523;28;20047;-82
2022/03/20 11:26:25;;;;;;;;;;;11.70;67.50;;;;;;5091502;28;20425;-82
2022/03/20 11:28:59;;;;;;;30.02;20.48;;;11.70;64.90;;;;;;5105605;28;19920;-84
2022/03/20 11:31:25;;;;;;;29.27;18.85;;;11.60;65.40;;;;;;5092389;28;20509;-82
2022/03/20 11:33:52;;;;;;;29.52;18.63;;;11.90;67.10;;;;;;5094024;28;20040;-81
2022/03/20 11:36:18;;;;;;;28.42;18.75;;;12.20;66.60;;;;;;5086547;28;20078;-80
2022/03/20 11:39:10;;;;;;;29.13;19.60;;;12.00;64.80;;;;;;5093162;28;20426;-81
2022/03/20 11:41:36;;;;;;;30.27;17.70;;;11.90;64.90;;;;;;5091225;28;20105;-78
2022/03/20 11:44:10;;;;;;;26.50;17.90;;;12.30;66.30;;;;;;5081984;28;20482;-79
2022/03/20 11:46:37;;;;;;;29.00;18.85;;;12.30;64.10;;;;;;5092966;28;20494;-80
2022/03/20 11:49:17;;;;;;;25.50;18.73;;;12.30;63.10;;;;;;5094093;28;20103;-82
2022/03/20 11:51:55;;;;;;;33.67;19.10;;;12.30;62.40;;;;;;5088209;28;20487;-82
2022/03/20 11:54:27;;;;;;;33.72;19.58;;;12.40;62.50;;;;;;5093653;28;20050;-81
2022/03/20 11:56:54;;;;;;;28.52;19.08;;;12.50;62.60;;;;;;5091464;28;20040;-79
2022/03/20 11:59:46;;;;;;;32.15;18.20;;;12.20;62.40;;;;;;5093686;28;20051;-77
2022/03/20 12:02:15;;;;;;;26.92;19.05;;;12.40;62.30;;;;;;5093469;28;20570;-81
2022/03/20 12:05:13;;;;;;;33.17;19.77;;;12.60;61.60;;;;;;5093067;28;20044;-80
2022/03/20 12:07:51;;;;;;;27.17;18.17;;;13.00;61.00;;;;;;5091256;28;20462;-81
2022/03/20 12:10:17;;;;;;;;;;;13.20;60.90;;;;;;5083594;28;20066;-79
2022/03/20 12:13:07;;;;;;;30.13;18.42;;;13.50;59.80;;;;;;5087978;28;20350;-78
2022/03/20 12:15:42;;;;;;;27.38;18.48;;;13.60;59.90;;;;;;5088293;28;20127;-80
2022/03/20 12:18:10;;;;;;;26.80;19.02;;;13.90;59.10;;;;;;5087698;28;20538;-82
2022/03/20 12:21:02;;;;;;;28.60;18.15;;;14.40;59.30;;;;;;5090655;28;20079;-81
2022/03/20 12:23:35;;;;;;;25.42;19.65;;;14.30;56.60;;;;;;5089951;28;20052;-80
2022/03/20 12:26:22;;;;;;;25.75;18.17;;;13.60;56.00;;;;;;5087209;28;20114;-79
2022/03/20 12:28:48;;;;;;;28.52;18.95;;;13.00;56.10;;;;;;5089787;28;20059;-79
2022/03/20 12:31:27;;;;;;;26.33;19.23;;;12.50;57.50;;;;;;5094742;28;20044;-79
2022/03/20 12:34:19;;;;;;;27.25;18.20;;;12.60;57.80;;;;;;5099868;28;20043;-80
2022/03/20 12:36:45;;;;;;;27.27;18.88;;;13.00;57.10;;;;;;5100418;28;20070;-80
2022/03/20 12:39:11;;;;;;;29.50;19.17;;;13.50;57.50;;;;;;5099642;28;20036;-79
2022/03/20 12:41:37;;;;;;;35.15;18.65;;;14.00;57.80;;;;;;5104111;28;20059;-82
2022/03/20 12:44:07;;;;;;;31.55;19.30;;;14.40;56.70;;;;;;5105687;28;20119;-81
2022/03/20 12:46:37;;;;;;;33.92;20.25;;;14.40;55.50;;;;;;5102021;28;20075;-80
2022/03/20 12:49:03;;;;;;;38.20;18.98;;;14.20;54.90;;;;;;5128984;27;20031;-80
2022/03/20 12:51:34;;;;;;;28.52;18.20;;;14.10;55.60;;;;;;5093974;28;20062;-81
2022/03/20 12:54:04;;;;;;;34.25;19.05;;;14.10;55.40;;;;;;5096238;28;20043;-80
2022/03/20 12:56:32;;;;;;;27.25;17.77;;;13.80;54.60;;;;;;5098840;28;20070;-80
2022/03/20 12:58:57;;;;;;;31.73;20.40;;;14.10;54.90;;;;;;5090019;28;20498;-81
2022/03/20 13:01:23;;;;;;;32.20;18.65;;;13.90;53.50;;;;;;5092315;28;20117;-82
2022/03/20 13:03:49;;;;;;;25.67;18.15;;;14.40;54.20;;;;;;5095589;28;20044;-81
2022/03/20 13:06:15;;;;;;;27.90;18.15;;;14.30;54.40;;;;;;5094387;28;20046;-82
2022/03/20 13:08:45;;;;;;;26.05;18.13;;;14.30;54.40;;;;;;5094139;28;20036;-81
2022/03/20 13:14:08;;;;;;;28.30;18.42;;;14.20;53.40;;;;;;5081143;28;20044;-79
2022/03/20 13:16:34;;;;;;;27.30;18.50;;;13.80;54.10;;;;;;5094093;28;20066;-80
2022/03/20 13:19:00;;;;;;;32.67;19.10;;;13.30;54.20;;;;;;5091878;28;20048;-80